Etusivu
METAR-TAF:

METAR-TAF

Lentoasemat :

Middleton Field

Evergreen, Alabama, Yhdysvallat

Leveyspiiri: 31-25-08N, Pituuspiiri: 087-02-53W, korkeus merenpinnasta: 78 m

Tämänhetkinen sää

Tämä raportti tehtiin 34 minuuttia sitten, kello 23.10 UTC
Tuuli 4 kn koillisesta
Lämpötila 18°C
Kosteus 88%
Ilmanpaine 1011 hPa
Näkyvyys: 6.4 km
Hajanaisia pilviä 6000 ft:n korkeudessa
Hajonneita pilviä 8000 ft:n korkeudessa
Pilvistä 9000 ft:n korkeudessa
kovaa sadetta, utua

METAR: KGZH 252310Z AUTO 05004KT 4SM +RA BR SCT060 BKN080 OVC090 18/16 A2986 RMK AO2 LTG DSNT S TSE04 PRESFR P0006 T01780161 $

Aika: 18:44 (23:44 UTC)


TAF: puuttuu

Säähavainnot ja -ennusteet yli 4000 lentoasemalta (METAR- ja TAF-raportit).

Käytössä olevat sääasemat on merkitty karttaan keltaisilla ja punaisilla pisteillä.

Aseta hiiri pisteen päälle nähdäksesi sääaseman nimen.

Klikkaa sitten nähdäksesi säähavainnot ja -ennusteet.

Kartan vaihtaminen: klikkaa mustalla rastilla varustettuja vihreitä pisteitä, niin voit zoomata sisään; viivalla varustettua vihreää pistettä, niin voit zoomata ulos tai vihreitä nuolia, niin pääset viereisille kartoille.


METAR-TAF: